KILN/ILN METAR and TAF weather

Enter ICAO airport designator
Station Type Date Time Source
KILN METAR 2020/09/23 01:54 UTC NOAA

KILN 230154Z AUTO 23004KT 10SM CLR 12/08 A3014 RMK AO2 SLP210 T01220083


Station Type Date Time Source
KILN Decoded METAR 2020/09/23 01:54 UTC NOAA

WILMINGTON INDUSTRIAL AIRPORT , OH, United States (KILN) 39-26N 083-47W 332M
Sep 22, 2020 - 09:54 PM EDT / 2020.09.23 0154 UTC
Wind: from the SW (230 degrees) at 5 MPH (4 KT):0
Visibility: 10 mile(s):0
Sky conditions: clear
Temperature: 54.0 F (12.2 C)
Dew Point: 46.9 F (8.3 C)
Relative Humidity: 77%
Pressure (altimeter): 30.14 in. Hg (1020 hPa)
ob: KILN 230154Z AUTO 23004KT 10SM CLR 12/08 A3014 RMK AO2 SLP210 T01220083
cycle: 2

Station Type Date Time Source
KILN TAF 2020/09/22 18:45 UTC NOAA

TAF KILN 221741Z 2218/2318 00000KT P6SM FEW040 SCT250
TEMPO 2310/2312 5SM BR
FM231600 28005KT P6SM SCT040 BKN250

Example: see airport list